Time;durP1;ratioP1;P1;durP2;ratioP2;P2;SDS_P1;SDS_P2;PMS_P1;PMS_P2;Temp;Humidity;BMP_temperature;BMP_pressure;BME280_temperature;BME280_humidity;BME280_pressure;Samples;Min_cycle;Max_cycle;Signal;HPM_P1;HPM_P2
2023/05/14 00:00:44;;;;;;;;;;;15.70;95.10;;;15.95;60.76;98688.09;5064385;27;108911;-86
2023/05/14 00:03:13;;;;;;;;;;;15.70;95.10;;;15.95;60.43;98693.66;5070566;27;108075;-86
2023/05/14 00:05:40;;;;;;;;;;;15.70;95.20;;;15.93;60.75;98690.41;5085324;27;124873;-86
2023/05/14 00:08:06;;;;;;;;;;;15.70;95.20;;;15.93;60.73;98690.41;5078119;27;124330;-86
2023/05/14 00:10:40;;;;;;;;;;;15.70;95.20;;;15.92;60.71;98686.00;5091204;27;109664;-86
2023/05/14 00:13:06;;;;;;;;;;;15.70;95.30;;;15.92;60.73;98678.47;5077274;27;108655;-86
2023/05/14 00:15:32;;;;;;;;;;;15.60;95.20;;;15.93;60.79;98674.50;5093571;27;124815;-86
2023/05/14 00:18:02;;;;;;;;;;;15.60;95.20;;;15.92;60.66;98672.88;5075182;27;123681;-86
2023/05/14 00:20:30;;;;;;;;;;;15.70;95.30;;;15.92;60.75;98666.50;5058676;27;108913;-85
2023/05/14 00:22:56;;;;;;;;;;;15.60;95.30;;;15.92;60.59;98672.88;5071339;27;109007;-87
2023/05/14 00:25:26;;;;;;;;;;;15.60;95.30;;;15.94;60.97;98667.78;5090564;27;124588;-86
2023/05/14 00:27:52;;;;;;;;;;;15.60;95.40;;;15.94;60.95;98670.56;5085742;27;123661;-87
2023/05/14 00:30:19;;;;;;;;;;;15.60;95.50;;;15.94;60.96;98659.41;5073249;27;109931;-87
2023/05/14 00:32:45;;;;;;;;;;;15.60;95.50;;;15.94;61.04;98661.41;5086813;27;111560;-86
2023/05/14 00:35:14;;;;;;;;;;;15.60;95.50;;;15.93;61.12;98663.34;5056088;27;124138;-86
2023/05/14 00:37:41;;;;;;;;;;;15.60;95.50;;;15.93;60.95;98662.53;5087188;27;123926;-86
2023/05/14 00:40:15;;;;;;;;;;;15.60;95.50;;;15.92;60.90;98656.16;5088980;27;109525;-87
2023/05/14 00:42:41;;;;;;;;;;;15.60;95.50;;;15.91;61.03;98654.56;5083542;27;108276;-87
2023/05/14 00:45:08;;;;;;;;;;;15.60;95.50;;;15.86;61.07;98655.59;5075663;27;123688;-86
2023/05/14 00:47:38;;;;;;;;;;;15.60;95.50;;;15.84;60.83;98654.31;5093294;27;124613;-86
2023/05/14 00:50:05;;;;;;;;;;;15.50;95.40;;;15.79;60.93;98641.44;5078254;27;109088;-87
2023/05/14 00:52:31;;;;;;;;;;;15.50;95.40;;;15.76;60.92;98650.50;5076645;27;108796;-87
2023/05/14 00:55:05;;;;;;;;;;;15.50;95.40;;;15.71;60.94;98650.75;5074562;27;123946;-87
2023/05/14 00:57:32;;;;;;;;;;;15.50;95.40;;;15.69;60.99;98653.09;5088675;27;123469;-86
2023/05/14 01:00:02;;;;;;;;;;;15.50;95.40;;;15.66;61.07;98646.22;5073460;27;109434;-87
2023/05/14 01:02:28;;;;;;;;;;;15.40;95.40;;;15.66;61.19;98653.72;5047831;27;107975;-86
2023/05/14 01:04:55;;;;;;;;;;;15.40;95.50;;;15.64;61.21;98642.16;5091023;27;124494;-87
2023/05/14 01:07:37;;;;;;;;;;;15.40;95.50;;;15.64;61.29;98634.59;5089161;27;124574;-87
2023/05/14 01:10:14;;;;;;;;;;;15.40;95.50;;;15.61;61.21;98640.88;5093043;27;109452;-87
2023/05/14 01:13:03;;;;;;;;;;;15.40;95.50;;;15.60;61.29;98638.44;5093610;27;108956;-86
2023/05/14 01:15:31;;;;;;;;;;;15.30;95.50;;;15.57;61.35;98639.94;5064352;27;123990;-84
2023/05/14 01:18:08;;;;;;;;;;;15.30;95.50;;;15.57;61.51;98633.56;5067657;27;122904;-87
2023/05/14 01:20:37;;;;;;;;;;;15.30;95.60;;;15.56;61.45;98637.53;5078978;27;110291;-86
2023/05/14 01:23:03;;;;;;;;;;;15.30;95.60;;;15.51;61.56;98630.22;5060705;27;109283;-86
2023/05/14 01:25:30;;;;;;;;;;;15.30;95.60;;;15.51;61.84;98634.97;5093168;27;125119;-86
2023/05/14 01:28:17;;;;;;;;;;;15.30;95.60;;;15.48;61.59;98635.69;5062595;27;123038;-87
2023/05/14 01:30:57;;;;;;;;;;;15.30;95.70;;;15.45;61.79;98631.63;5070861;27;110041;-86
2023/05/14 01:33:28;;;;;;;;;;;15.20;95.60;;;15.44;61.82;98630.78;5066318;27;109375;-86
2023/05/14 01:35:55;;;;;;;;;;;15.20;95.70;;;15.43;61.64;98640.31;5065884;27;124294;-86
2023/05/14 01:38:30;;;;;;;;;;;15.20;95.70;;;15.43;61.49;98640.31;5075338;27;123935;-86
2023/05/14 01:40:57;;;;;;;;;;;15.20;95.80;;;15.43;61.72;98645.88;5077489;27;109531;-87
2023/05/14 01:43:31;;;;;;;;;;;15.20;95.80;;;15.41;61.53;98636.25;5075124;27;108453;-87
2023/05/14 01:46:01;;;;;;;;;;;15.10;95.70;;;15.39;61.72;98627.41;5085588;27;124745;-86
2023/05/14 01:48:28;;;;;;;;;;;15.10;96.00;;;15.38;61.66;98631.38;5092801;27;124477;-87
2023/05/14 01:50:57;;;;;;;;;;;15.10;95.70;;;15.36;61.56;98622.56;5089049;27;109523;-86
2023/05/14 01:53:26;;;;;;;;;;;15.10;95.70;;;15.35;61.54;98629.28;5073153;27;108506;-86
2023/05/14 01:55:55;;;;;;;;;;;15.10;95.70;;;15.32;61.59;98627.22;5091802;27;124467;-87
2023/05/14 01:58:21;;;;;;;;;;;15.10;95.70;;;15.29;61.75;98634.28;5073297;27;124018;-87
2023/05/14 02:00:50;;;;;;;;;;;15.10;95.70;;;15.26;61.71;98629.41;5083323;27;109300;-87
2023/05/14 02:03:16;;;;;;;;;;;15.00;95.70;;;15.25;61.85;98633.34;5080915;27;108594;-86
2023/05/14 02:05:42;;;;;;;;;;;15.00;95.70;;;15.23;61.93;98632.88;5091743;27;124129;-87
2023/05/14 02:08:13;;;;;;;;;;;15.00;95.80;;;15.23;61.92;98641.22;5082907;27;123868;-86
2023/05/14 02:10:39;;;;;;;;;;;15.00;95.80;;;15.18;61.85;98630.34;5063694;27;109923;-87
2023/05/14 02:13:06;;;;;;;;;;;14.90;95.80;;;15.17;61.92;98637.06;5085827;27;109721;-86
2023/05/14 02:15:32;;;;;;;;;;;14.90;95.80;;;15.15;61.97;98633.78;5084515;27;123181;-87
2023/05/14 02:18:01;;;;;;;;;;;14.90;95.80;;;15.13;62.06;98636.13;5088112;27;123831;-87
2023/05/14 02:20:27;;;;;;;;;;;14.90;95.80;;;15.11;61.83;98632.88;5082645;27;109105;-88
2023/05/14 02:22:53;;;;;;;;;;;14.90;95.90;;;15.08;61.99;98631.59;5079658;27;107680;-86
2023/05/14 02:25:20;;;;;;;;;;;14.80;95.80;;;15.07;62.02;98629.97;5092012;27;124343;-87
2023/05/14 02:27:49;;;;;;;;;;;14.90;95.90;;;15.08;62.12;98639.13;5093557;27;123800;-87
2023/05/14 02:30:15;;;;;;;;;;;14.80;95.90;;;15.06;62.04;98635.88;5091264;27;109493;-87
2023/05/14 02:32:42;;;;;;;;;;;14.80;95.90;;;15.03;62.07;98627.06;5080880;27;108648;-86
2023/05/14 02:35:08;;;;;;;;;;;14.80;95.90;;;15.00;62.17;98619.41;5090955;27;123968;-87
2023/05/14 02:37:37;;;;;;;;;;;14.80;96.00;;;15.00;62.16;98638.88;5075685;27;123463;-87
2023/05/14 02:40:04;;;;;;;;;;;14.70;95.90;;;14.99;62.09;98637.28;5068937;27;109379;-86
2023/05/14 02:42:30;;;;;;;;;;;14.70;96.00;;;14.96;62.15;98637.97;5092748;27;108539;-87
2023/05/14 02:44:56;;;;;;;;;;;14.70;96.00;;;14.95;62.38;98630.75;5083232;27;126576;-86
2023/05/14 02:47:25;;;;;;;;;;;14.70;96.00;;;14.95;62.33;98630.75;5091882;27;123879;-87
2023/05/14 02:49:51;;;;;;;;;;;14.70;96.00;;;14.94;62.42;98634.72;5072945;27;109915;-88
2023/05/14 02:52:18;;;;;;;;;;;15.10;96.20;;;14.94;62.31;98639.47;5092388;27;108249;-87
2023/05/14 02:54:44;;;;;;;;;;;14.70;96.10;;;14.91;62.35;98635.41;5088448;27;124354;-87
2023/05/14 02:57:13;;;;;;;;;;;14.70;96.10;;;14.90;62.30;98641.31;5083242;27;124072;-87
2023/05/14 02:59:40;;;;;;;;;;;14.70;96.10;;;14.86;62.44;98646.75;5090602;27;110388;-87
2023/05/14 03:02:06;;;;;;;;;;;14.60;96.10;;;14.86;62.52;98637.59;5088034;27;109866;-87
2023/05/14 03:04:32;;;;;;;;;;;14.60;96.20;;;14.86;62.57;98638.41;5091538;27;124219;-87
2023/05/14 03:07:02;;;;;;;;;;;14.60;96.20;;;14.85;62.52;98644.31;5064042;27;123987;-86
2023/05/14 03:09:28;;;;;;;;;;;14.60;96.30;;;14.78;62.69;98651.25;5087564;27;109345;-87
2023/05/14 03:11:54;;;;;;;;;;;14.50;96.30;;;14.75;62.91;98653.94;5091484;27;108616;-87
2023/05/14 03:14:20;;;;;;;;;;;14.50;96.20;;;14.73;62.97;98645.91;5073050;27;124663;-87
2023/05/14 03:16:49;;;;;;;;;;;14.50;96.20;;;14.73;62.74;98650.66;5076908;27;125627;-86
2023/05/14 03:19:15;;;;;;;;;;;14.50;96.30;;;14.70;62.86;98638.25;5062216;27;109537;-87
2023/05/14 03:21:42;;;;;;;;;;;14.50;96.20;;;14.71;62.76;98639.06;5086482;27;110345;-87
2023/05/14 03:24:08;;;;;;;;;;;14.50;96.20;;;14.70;62.70;98640.22;5083155;27;124422;-87
2023/05/14 03:26:40;;;;;;;;;;;14.50;96.30;;;14.70;62.86;98637.47;5086623;27;123823;-87
2023/05/14 03:29:07;;;;;;;;;;;14.50;96.30;;;14.71;62.63;98636.28;5085671;27;109257;-87
2023/05/14 03:31:33;;;;;;;;;;;14.50;96.30;;;14.70;62.77;98640.22;5077685;27;108889;-87
2023/05/14 03:34:02;;;;;;;;;;;14.50;96.30;;;14.70;62.95;98643.00;5093220;27;124012;-87
2023/05/14 03:36:28;;;;;;;;;;;14.40;96.30;;;14.69;62.88;98641.38;5080407;27;124270;-87
2023/05/14 03:38:54;;;;;;;;;;;14.40;96.30;;;14.65;62.59;98640.44;5072197;27;109937;-87
2023/05/14 03:41:27;;;;;;;;;;;14.40;96.30;;;14.64;62.86;98638.81;5085574;27;108819;-87
2023/05/14 03:43:53;;;;;;;;;;;14.40;96.30;;;14.62;62.94;98641.13;5083153;27;125043;-87
2023/05/14 03:46:20;;;;;;;;;;;14.40;96.30;;;14.62;62.89;98643.91;5078943;27;123590;-87
2023/05/14 03:48:52;;;;;;;;;;;14.40;96.30;;;14.61;63.04;98645.88;5088961;27;110189;-87
2023/05/14 03:51:18;;;;;;;;;;;14.40;96.40;;;14.57;63.17;98642.97;5089127;27;109634;-86
2023/05/14 03:53:52;;;;;;;;;;;14.30;96.40;;;14.60;63.15;98635.09;5082541;27;124262;-87
2023/05/14 03:56:18;;;;;;;;;;;14.30;96.40;;;14.60;63.06;98635.09;5075281;27;123625;-87
2023/05/14 03:58:44;;;;;;;;;;;14.30;96.40;;;14.60;63.13;98632.31;5084046;27;108480;-87
2023/05/14 04:01:13;;;;;;;;;;;14.30;96.40;;;14.58;63.00;98639.03;5080142;27;108524;-86
2023/05/14 04:03:42;;;;;;;;;;;14.30;96.40;;;14.56;62.94;98629.41;5067947;27;123567;-87
2023/05/14 04:06:08;;;;;;;;;;;14.30;96.40;;;14.54;62.95;98632.53;5089791;27;123063;-87
2023/05/14 04:08:40;;;;;;;;;;;14.30;96.70;;;14.52;62.94;98629.28;5091329;27;109633;-87
2023/05/14 04:11:07;;;;;;;;;;;14.30;96.40;;;14.51;63.17;98627.63;5090736;27;108644;-87
2023/05/14 04:13:33;;;;;;;;;;;14.30;96.50;;;14.49;62.99;98632.72;5082927;27;124020;-86
2023/05/14 04:16:02;;;;;;;;;;;14.30;96.50;;;14.49;63.07;98632.72;5088355;27;123903;-87
2023/05/14 04:18:28;;;;;;;;;;;14.20;96.50;;;14.50;63.17;98637.13;5072168;27;108415;-87
2023/05/14 04:20:54;;;;;;;;;;;14.20;96.50;;;14.49;63.20;98638.28;5085903;27;109250;-86
2023/05/14 04:23:21;;;;;;;;;;;14.40;96.60;;;14.49;63.17;98634.69;5081943;27;124600;-87
2023/05/14 04:25:50;;;;;;;;;;;14.20;96.50;;;14.49;63.18;98629.94;5087152;27;125050;-87
2023/05/14 04:28:19;;;;;;;;;;;14.20;96.60;;;14.48;63.38;98631.09;5081015;27;110133;-87
2023/05/14 04:30:50;;;;;;;;;;;14.20;96.60;;;14.49;63.31;98632.72;5079319;27;108796;-87
2023/05/14 04:33:16;;;;;;;;;;;14.20;96.60;;;14.47;63.18;98629.47;5061973;27;123584;-88
2023/05/14 04:35:44;;;;;;;;;;;14.20;96.60;;;14.46;63.32;98633.41;5090065;27;124520;-87
2023/05/14 04:38:16;;;;;;;;;;;14.20;96.60;;;14.43;63.52;98628.53;5053400;27;110156;-87
2023/05/14 04:40:42;;;;;;;;;;;14.20;96.60;;;14.44;63.50;98629.34;5075893;27;109776;-87
2023/05/14 04:43:16;;;;;;;;;;;14.20;96.70;;;14.43;63.33;98624.94;5082829;27;124659;-87
2023/05/14 04:45:51;;;;;;;;;;;14.10;96.60;;;14.41;63.21;98630.03;5078907;27;124033;-87
2023/05/14 04:48:19;;;;;;;;;;;14.10;96.60;;;14.39;63.21;98621.22;5076759;27;109552;-87
2023/05/14 04:50:46;;;;;;;;;;;14.20;96.60;;;14.39;63.14;98626.78;5093970;27;108821;-87
2023/05/14 04:53:15;;;;;;;;;;;14.10;96.60;;;14.36;63.11;98619.94;5088971;27;124356;-86
2023/05/14 04:55:41;;;;;;;;;;;14.10;96.60;;;14.35;63.21;98623.88;5083808;27;123741;-86
2023/05/14 04:58:07;;;;;;;;;;;14.10;96.60;;;14.31;63.20;98628.47;5093621;27;109374;-87
2023/05/14 05:00:41;;;;;;;;;;;14.10;96.50;;;14.31;63.38;98634.03;5084390;27;108814;-87
2023/05/14 05:03:07;;;;;;;;;;;14.10;96.50;;;14.31;63.37;98634.03;5089231;27;123456;-88
2023/05/14 05:05:34;;;;;;;;;;;14.10;96.60;;;14.31;63.22;98634.03;5093291;27;124350;-87
2023/05/14 05:08:03;;;;;;;;;;;14.10;96.60;;;14.32;63.30;98641.25;5084735;27;109217;-87
2023/05/14 05:10:29;;;;;;;;;;;14.00;96.60;;;14.29;63.39;98636.34;5090747;27;108484;-87
2023/05/14 05:13:52;;;;;;;;;;;14.00;96.60;;;14.27;63.25;98635.88;5079179;27;125025;-87
2023/05/14 05:16:27;;;;;;;;;;;14.00;96.60;;;14.22;63.52;98631.34;5073817;27;123826;-87
2023/05/14 05:18:56;;;;;;;;;;;14.00;96.60;;;14.20;63.33;98630.06;5091533;27;109153;-87
2023/05/14 05:21:35;;;;;;;;;;;14.00;96.60;;;14.18;63.44;98629.56;5077266;27;107043;-87
2023/05/14 05:24:51;;;;;;;;;;;13.90;96.60;;;14.13;63.54;98634.22;5037605;27;124952;-87
2023/05/14 05:27:45;;;;;;;;;;;13.90;96.60;;;14.12;63.71;98635.34;4944870;28;124069;-87
2023/05/14 05:30:29;;;;;;;;;;;13.90;96.70;;;14.12;63.60;98643.69;4997472;28;110209;-87
2023/05/14 05:32:56;;;;;;;;;;;13.90;96.70;;;14.14;63.75;98641.38;4973108;28;109578;-87
2023/05/14 05:35:30;;;;;;;;;;;13.90;96.70;;;14.17;63.56;98639.09;4983062;28;124282;-87
2023/05/14 05:38:08;;;;;;;;;;;13.90;96.70;;;14.18;63.49;98635.13;4993761;28;124765;-86
2023/05/14 05:40:35;;;;;;;;;;;13.90;96.80;;;14.15;63.69;98637.44;4994926;28;108651;-86
2023/05/14 05:43:53;;;;;;;;;;;13.90;96.70;;;14.17;63.54;98639.09;4992360;28;108557;-87
2023/05/14 05:46:55;;;;;;;;;;;13.90;96.70;;;14.16;63.60;98632.72;5002740;28;124479;-86
2023/05/14 05:49:55;;;;;;;;;;;13.90;96.70;;;14.14;63.44;98629.47;4953017;28;123805;-86
2023/05/14 05:52:44;;;;;;;;;;;13.90;96.70;;;14.13;63.49;98639.75;4987709;28;108278;-88
2023/05/14 05:55:32;;;;;;;;;;;13.90;96.70;;;14.11;63.68;98630.94;4985938;28;108823;-88
2023/05/14 05:58:33;;;;;;;;;;;13.90;96.80;;;14.12;64.12;98632.56;4984956;28;125893;-88
2023/05/14 06:00:59;;;;;;;;;;;13.80;96.80;;;14.13;63.90;98637.00;4984000;28;125003;-88
2023/05/14 06:07:04;;;;;;;;;;;13.90;96.90;;;14.13;63.94;98637.00;5031095;28;110791;-87
2023/05/14 06:09:55;;;;;;;;;;;13.90;96.90;;;14.14;63.93;98638.59;5009030;28;124204;-88
2023/05/14 06:12:27;;;;;;;;;;;13.90;96.90;;;14.14;63.96;98640.56;5032234;27;123960;-88
2023/05/14 06:18:16;;;;;;;;;;;13.80;96.90;;;14.12;64.12;98642.88;5034849;27;109204;-87
2023/05/14 06:20:44;;;;;;;;;;;13.90;96.90;;;14.14;63.93;98646.94;5026292;27;124191;-88
2023/05/14 06:23:13;;;;;;;;;;;13.90;97.00;;;14.18;63.89;98640.69;5026001;27;124497;-87
2023/05/14 06:25:39;;;;;;;;;;;13.90;97.00;;;14.19;64.04;98642.34;5018063;27;111072;-87
2023/05/14 06:28:08;;;;;;;;;;;13.90;97.00;;;14.22;63.74;98642.47;5016816;27;110277;-87
2023/05/14 06:30:35;;;;;;;;;;;13.90;97.00;;;14.26;63.74;98642.59;5019258;28;123535;-87
2023/05/14 06:33:01;;;;;;;;;;;13.90;97.00;;;14.28;63.74;98645.84;5007488;27;123554;-87
2023/05/14 06:35:37;;;;;;;;;;;14.00;97.00;;;14.29;63.66;98636.34;5006078;27;109301;-87
2023/05/14 06:38:08;;;;;;;;;;;14.00;97.00;;;14.31;63.48;98645.97;5003069;27;107988;-87
2023/05/14 06:40:34;;;;;;;;;;;14.00;97.00;;;14.33;63.49;98637.28;5001975;28;124267;-86
2023/05/14 06:43:05;;;;;;;;;;;14.00;96.90;;;14.36;63.55;98636.59;5054728;27;124168;-85
2023/05/14 06:45:34;;;;;;;;;;;14.00;97.00;;;14.40;63.57;98632.00;5089599;27;108098;-87
2023/05/14 06:48:01;;;;;;;;;;;14.00;96.90;;;14.43;63.41;98628.53;5087738;27;109029;-87
2023/05/14 06:50:34;;;;;;;;;;;14.10;97.00;;;14.48;63.44;98631.09;5086520;27;123723;-87
2023/05/14 06:53:01;;;;;;;;;;;14.10;96.90;;;14.52;63.29;98623.72;5085824;27;123690;-88
2023/05/14 06:55:27;;;;;;;;;;;14.20;97.00;;;14.56;63.34;98627.44;5061148;27;109498;-86
2023/05/14 06:57:56;;;;;;;;;;;14.20;97.00;;;14.62;63.12;98632.81;5054379;27;107608;-86
2023/05/14 07:00:22;;;;;;;;;;;14.20;96.90;;;14.66;63.08;98633.72;5078198;27;123935;-82
2023/05/14 07:02:49;;;;;;;;;;;14.30;96.90;;;14.73;63.04;98625.63;5086276;27;123874;-84
2023/05/14 07:05:23;;;;;;;;;;;14.30;96.90;;;14.79;63.14;98635.38;5091649;27;109351;-84
2023/05/14 07:07:51;;;;;;;;;;;14.40;97.00;;;14.84;62.88;98634.34;5063569;27;108039;-84
2023/05/14 07:10:20;;;;;;;;;;;14.40;97.00;;;14.85;62.92;98634.00;5072634;27;123871;-84
2023/05/14 07:12:47;;;;;;;;;;;14.40;96.90;;;14.87;62.69;98633.66;5068862;27;123942;-83
2023/05/14 07:15:22;;;;;;;;;;;14.50;96.90;;;14.87;62.88;98628.91;5079922;27;110256;-83
2023/05/14 07:17:48;;;;;;;;;;;14.50;96.90;;;14.88;62.79;98635.28;5087831;27;109904;-83
2023/05/14 07:20:14;;;;;;;;;;;14.50;96.90;;;14.90;62.89;98632.97;5091869;27;124603;-82
2023/05/14 07:22:44;;;;;;;;;;;14.50;96.80;;;14.90;62.83;98630.19;5074695;27;124025;-85
2023/05/14 07:25:12;;;;;;;;;;;14.50;96.80;;;14.88;62.69;98624.94;5092345;27;109413;-85
2023/05/14 07:27:39;;;;;;;;;;;14.50;96.80;;;14.88;63.25;98630.50;5091510;27;108647;-84
2023/05/14 07:30:11;;;;;;;;;;;14.60;96.80;;;14.90;62.71;98628.22;5091409;27;124826;-84
2023/05/14 07:32:39;;;;;;;;;;;14.50;96.80;;;14.91;62.89;98624.28;5094253;27;123131;-83
2023/05/14 07:35:08;;;;;;;;;;;14.60;96.80;;;14.95;62.85;98633.56;5092298;27;109486;-84
2023/05/14 07:37:35;;;;;;;;;;;14.60;96.80;;;14.99;62.53;98628.94;5088272;27;108962;-85
2023/05/14 07:40:12;;;;;;;;;;;14.60;96.80;;;15.01;62.53;98623.00;5067093;27;124252;-85
2023/05/14 07:42:38;;;;;;;;;;;14.60;96.70;;;15.06;62.50;98622.78;5082100;27;123500;-83
2023/05/14 07:45:13;;;;;;;;;;;14.70;96.80;;;15.07;62.32;98610.50;5075654;27;109330;-84
2023/05/14 07:47:50;;;;;;;;;;;14.70;96.70;;;15.06;62.28;98616.41;5089233;27;108785;-85
2023/05/14 07:50:18;;;;;;;;;;;14.70;96.60;;;15.09;62.33;98612.94;5093300;27;124541;-84
2023/05/14 07:52:44;;;;;;;;;;;14.70;96.60;;;15.17;62.21;98614.78;5089210;27;124171;-85
2023/05/14 07:55:12;;;;;;;;;;;14.70;96.50;;;15.20;61.83;98620.47;5085181;27;109302;-84
2023/05/14 07:57:44;;;;;;;;;;;14.70;96.50;;;15.27;61.70;98608.75;5061831;27;107769;-82
2023/05/14 08:00:16;;;;;;;;;;;14.80;96.50;;;15.36;61.99;98612.22;5064694;27;124002;-85
2023/05/14 08:02:45;;;;;;;;;;;14.90;96.50;;;15.50;61.52;98608.25;5090072;27;123699;-86
2023/05/14 08:05:11;;;;;;;;;;;15.00;96.60;;;15.65;61.42;98602.00;5076570;27;110873;-83
2023/05/14 08:07:40;;;;;;;;;;;15.10;96.50;;;15.83;61.09;98594.22;5084797;27;109584;-84
2023/05/14 08:10:09;;;;;;;;;;;15.20;96.50;;;16.01;60.82;98600.28;5079755;27;124092;-84
2023/05/14 08:12:36;;;;;;;;;;;15.40;96.50;;;16.18;60.66;98597.22;5057560;27;124627;-84
2023/05/14 08:15:06;;;;;;;;;;;15.50;96.50;;;16.33;60.35;98592.84;5060859;27;109334;-85
2023/05/14 08:17:35;;;;;;;;;;;15.60;96.40;;;16.46;59.86;98586.03;5081996;27;108907;-83
2023/05/14 08:20:10;;;;;;;;;;;15.70;96.20;;;16.53;59.56;98591.81;5066491;27;124623;-83
2023/05/14 08:22:37;;;;;;;;;;;15.90;96.00;;;16.58;59.47;98590.75;5093161;27;124020;-84
2023/05/14 08:25:06;;;;;;;;;;;16.00;95.90;;;16.64;59.35;98592.09;5091431;27;109385;-83
2023/05/14 08:27:35;;;;;;;;;;;16.10;95.90;;;16.72;59.30;98579.16;5079279;27;108246;-83
2023/05/14 08:30:07;;;;;;;;;;;16.20;95.80;;;16.78;59.02;98581.34;5090597;27;124794;-83
2023/05/14 08:32:33;;;;;;;;;;;16.20;95.70;;;16.81;58.75;98579.00;5092204;27;123858;-83
2023/05/14 08:35:05;;;;;;;;;;;16.30;95.40;;;16.83;58.38;98576.69;5079869;27;109408;-82
2023/05/14 08:37:36;;;;;;;;;;;16.30;95.20;;;16.83;58.55;98565.50;5091114;27;108964;-83
2023/05/14 08:40:07;;;;;;;;;;;16.40;95.20;;;16.91;58.39;98570.91;5083766;27;124534;-83
2023/05/14 08:42:36;;;;;;;;;;;16.40;95.20;;;16.98;58.04;98573.09;5093233;27;124178;-83
2023/05/14 08:45:12;;;;;;;;;;;16.50;95.00;;;17.01;57.60;98575.16;5078854;27;109491;-82
2023/05/14 08:47:43;;;;;;;;;;;16.50;94.80;;;17.08;57.37;98566.94;5085620;27;108368;-79
2023/05/14 08:50:10;;;;;;;;;;;16.50;94.80;;;17.12;56.85;98567.84;5064059;27;123931;-82
2023/05/14 08:52:44;;;;;;;;;;;16.60;94.40;;;17.13;56.69;98575.03;5092033;27;124292;-83
2023/05/14 08:55:18;;;;;;;;;;;16.60;94.30;;;17.17;56.91;98570.38;5080851;27;109601;-83
2023/05/14 08:57:45;;;;;;;;;;;16.60;94.40;;;17.19;56.69;98578.34;5080177;27;109979;-84
2023/05/14 09:00:12;;;;;;;;;;;16.70;94.30;;;17.22;56.75;98570.09;5085476;27;124357;-83
2023/05/14 09:02:43;;;;;;;;;;;16.70;94.30;;;17.28;56.86;98570.63;5065495;27;123058;-83
2023/05/14 09:05:09;;;;;;;;;;;16.80;94.30;;;17.38;56.36;98569.22;5070241;27;109368;-84
2023/05/14 09:07:36;;;;;;;;;;;16.80;94.00;;;17.48;56.12;98567.88;5079882;27;108710;-84
2023/05/14 09:10:07;;;;;;;;;;;16.90;94.10;;;17.59;55.63;98569.72;5093805;27;124596;-84
2023/05/14 09:12:36;;;;;;;;;;;17.00;93.80;;;17.69;55.50;98573.13;5062589;27;122990;-84
2023/05/14 09:15:06;;;;;;;;;;;17.10;93.80;;;17.71;54.50;98570.78;5077314;27;109347;-84
2023/05/14 09:17:32;;;;;;;;;;;17.10;93.40;;;17.72;54.57;98564.00;5096787;27;108761;-87
2023/05/14 09:19:58;;;;;;;;;;;17.10;93.20;;;17.71;54.51;98570.78;5091735;27;126151;-83
2023/05/14 09:22:31;;;;;;;;;;;17.10;93.20;;;17.76;54.85;98565.72;5084342;27;124207;-84
2023/05/14 09:25:05;;;;;;;;;;;17.20;93.30;;;17.81;54.61;98554.28;5084478;27;109540;-83
2023/05/14 09:27:33;;;;;;;;;;;17.30;93.10;;;17.90;54.93;98556.06;5092672;27;108905;-82
2023/05/14 09:30:10;;;;;;;;;;;17.40;93.30;;;17.96;54.53;98554.56;5092995;27;124343;-80
2023/05/14 09:32:45;;;;;;;;;;;17.50;93.30;;;18.03;54.45;98547.16;5052817;27;122795;-82
2023/05/14 09:35:15;;;;;;;;;;;17.50;93.00;;;18.08;54.29;98543.22;5071454;27;109583;-83
2023/05/14 09:37:47;;;;;;;;;;;17.60;92.90;;;18.15;54.29;98540.56;5090778;27;108629;-84
2023/05/14 09:40:19;;;;;;;;;;;17.70;93.00;;;18.27;53.65;98548.81;5093943;27;124711;-87
2023/05/14 09:42:47;;;;;;;;;;;17.80;92.70;;;18.37;52.61;98547.38;5074336;27;124230;-87
2023/05/14 09:45:17;;;;;;;;;;;17.80;92.10;;;18.44;52.69;98539.13;5076914;27;109474;-80
2023/05/14 09:47:43;;;;;;;;;;;17.90;92.10;;;18.58;51.84;98540.59;5069786;27;110005;-80
2023/05/14 09:50:12;;;;;;;;;;;18.10;91.70;;;18.67;51.31;98544.75;5083916;27;124234;-80
2023/05/14 09:52:42;;;;;;;;;;;18.20;91.30;;;18.68;49.79;98537.16;5081424;27;124544;-80
2023/05/14 09:55:08;;;;;;;;;;;18.20;90.50;;;18.69;50.24;98538.78;5076713;27;109757;-81
2023/05/14 09:57:34;;;;;;;;;;;18.30;90.70;;;18.72;50.76;98532.44;5056446;27;108497;-75
2023/05/14 10:00:01;;;;;;;;;;;18.30;90.90;;;18.80;50.39;98531.41;5090066;27;125056;-78
2023/05/14 10:02:39;;;;;;;;;;;18.30;90.80;;;18.88;50.75;98532.34;5066230;27;124493;-78
2023/05/14 10:05:06;;;;;;;;;;;18.40;91.00;;;19.00;50.75;98523.75;5076815;27;109462;-80
2023/05/14 10:07:45;;;;;;;;;;;18.50;91.20;;;19.06;49.82;98532.63;5060658;27;108752;-79
2023/05/14 10:10:20;;;;;;;;;;;18.50;90.50;;;19.06;49.90;98530.63;5071706;27;124004;-80
2023/05/14 10:13:08;;;;;;;;;;;18.50;90.70;;;19.04;49.76;98523.78;5069823;27;123804;-78
2023/05/14 10:16:07;;;;;;;;;;;18.50;90.30;;;19.06;49.35;98529.84;5084000;27;109086;-80
2023/05/14 10:18:47;;;;;;;;;;;18.60;90.10;;;19.10;49.90;98530.69;5034592;27;108758;-81
2023/05/14 10:21:23;;;;;;;;;;;18.60;90.30;;;19.17;49.89;98530.81;5085642;27;124586;-79
2023/05/14 10:23:53;;;;;;;;;;;18.70;90.20;;;19.24;49.96;98528.13;5071054;27;123974;-80
2023/05/14 10:26:24;;;;;;;;;;;18.80;90.40;;;19.31;49.08;98527.41;5046306;27;108861;-80
2023/05/14 10:28:53;;;;;;;;;;;18.80;90.00;;;19.33;49.01;98525.84;5068563;27;108217;-81
2023/05/14 10:31:22;;;;;;;;;;;18.90;89.60;;;19.28;48.96;98522.56;5075402;27;123408;-81
2023/05/14 10:33:55;;;;;;;;;;;18.80;89.50;;;19.29;48.98;98516.59;5087701;27;124813;-80
2023/05/14 10:36:21;;;;;;;;;;;18.80;89.50;;;19.35;49.46;98517.06;5088413;27;109906;-80
2023/05/14 10:38:56;;;;;;;;;;;18.90;90.00;;;19.43;49.04;98510.38;5068656;27;109654;-81
2023/05/14 10:41:22;;;;;;;;;;;19.00;89.80;;;19.49;49.04;98519.25;5047702;27;124463;-80
2023/05/14 10:43:49;;;;;;;;;;;19.00;89.80;;;19.52;48.76;98507.28;5064749;27;123808;-79
2023/05/14 10:46:20;;;;;;;;;;;19.10;89.40;;;19.54;49.06;98507.72;5070139;27;109368;-80
2023/05/14 10:48:47;;;;;;;;;;;19.20;89.60;;;19.58;48.58;98505.78;5056280;27;108499;-80
2023/05/14 10:51:21;;;;;;;;;;;19.20;88.90;;;19.64;48.42;98504.28;5082929;27;124920;-79
2023/05/14 10:53:48;;;;;;;;;;;19.20;88.70;;;19.72;47.73;98503.19;5090101;27;123977;-78
2023/05/14 10:56:17;;;;;;;;;;;19.20;88.10;;;19.77;47.86;98497.25;5077991;27;108804;-80
2023/05/14 10:58:44;;;;;;;;;;;19.30;88.40;;;19.85;47.64;98500.94;5067853;27;107905;-78
2023/05/14 11:01:19;;;;;;;;;;;19.40;88.40;;;19.89;47.32;98492.59;5071192;27;124038;-80
2023/05/14 11:03:45;;;;;;;;;;;19.40;87.60;;;19.88;46.82;98490.97;5054015;27;123367;-80
2023/05/14 11:06:22;;;;;;;;;;;19.40;87.20;;;19.87;46.49;98487.34;5089345;27;109352;-80
2023/05/14 11:08:55;;;;;;;;;;;19.40;86.60;;;19.85;47.31;98487.75;5083993;27;108910;-79
2023/05/14 11:11:23;;;;;;;;;;;19.40;87.10;;;19.84;46.85;98477.69;5062105;27;124497;-78
2023/05/14 11:13:56;;;;;;;;;;;19.40;86.30;;;19.78;47.03;98489.66;5085674;27;124368;-79
2023/05/14 11:16:29;;;;;;;;;;;19.40;86.90;;;19.74;47.78;98483.97;5068110;27;109162;-80
2023/05/14 11:19:05;;;;;;;;;;;19.40;87.60;;;19.71;47.67;98487.56;5067371;27;108986;-79
2023/05/14 11:21:32;;;;;;;;;;;19.30;87.30;;;19.66;47.57;98487.88;5088557;27;124244;-79
2023/05/14 11:24:02;;;;;;;;;;;19.30;87.30;;;19.60;48.06;98480.97;5094650;27;123975;-79
2023/05/14 11:26:31;;;;;;;;;;;19.20;87.50;;;19.56;47.35;98472.53;5062052;27;110082;-79
2023/05/14 11:28:58;;;;;;;;;;;19.20;87.10;;;19.53;47.42;98462.09;5072373;27;108969;-79
2023/05/14 11:31:24;;;;;;;;;;;19.20;86.80;;;19.53;47.72;98466.88;5078791;27;123734;-79